Time;durP1;ratioP1;P1;durP2;ratioP2;P2;SDS_P1;SDS_P2;PMS_P1;PMS_P2;Temp;Humidity;BMP_temperature;BMP_pressure;BME280_temperature;BME280_humidity;BME280_pressure;Samples;Min_cycle;Max_cycle;Signal;HPM_P1;HPM_P2
2023/06/16 00:01:39;;;;;;;7.40;3.95;;;24.10;68.70;;;;;;5033830;28;20029;-61
2023/06/16 00:04:05;;;;;;;4.35;3.90;;;24.10;68.70;;;;;;5034166;28;20025;-61
2023/06/16 00:06:31;;;;;;;6.75;4.45;;;24.10;68.50;;;;;;5033826;28;20025;-61
2023/06/16 00:08:58;;;;;;;10.98;4.72;;;24.10;68.90;;;;;;5033782;28;20100;-61
2023/06/16 00:11:28;;;;;;;5.68;4.40;;;24.10;68.90;;;;;;5033637;28;20052;-61
2023/06/16 00:13:55;;;;;;;7.63;4.18;;;24.00;69.30;;;;;;5033637;28;20018;-61
2023/06/16 00:16:22;;;;;;;6.55;4.40;;;24.00;69.40;;;;;;5033721;28;20433;-62
2023/06/16 00:18:52;;;;;;;8.02;4.22;;;24.00;69.60;;;;;;5033801;28;20021;-61
2023/06/16 00:21:35;;;;;;;5.50;4.13;;;24.00;69.60;;;;;;5033489;28;20029;-63
2023/06/16 00:24:01;;;;;;;5.90;4.57;;;24.00;70.00;;;;;;5033828;28;20025;-62
2023/06/16 00:26:27;;;;;;;5.32;4.47;;;23.90;70.20;;;;;;5033583;28;20091;-62
2023/06/16 00:28:52;;;;;;;6.38;4.13;;;23.90;70.30;;;;;;5033240;28;20102;-62
2023/06/16 00:31:18;;;;;;;5.72;4.28;;;23.90;70.00;;;;;;5033595;28;20021;-62
2023/06/16 00:33:43;;;;;;;5.10;3.80;;;23.90;70.00;;;;;;5033475;28;20029;-63
2023/06/16 00:36:09;;;;;;;5.63;4.20;;;23.80;70.00;;;;;;5033395;28;20021;-62
2023/06/16 00:38:34;;;;;;;6.63;4.30;;;23.80;69.90;;;;;;5033065;28;20044;-62
2023/06/16 00:41:01;;;;;;;6.15;4.45;;;23.80;70.10;;;;;;5033313;28;20034;-63
2023/06/16 00:43:26;;;;;;;8.93;4.55;;;23.80;70.00;;;;;;5033164;28;20026;-61
2023/06/16 00:45:52;;;;;;;6.53;4.38;;;23.80;70.00;;;;;;5033198;28;20032;-61
2023/06/16 00:48:19;;;;;;;7.05;4.00;;;23.70;70.20;;;;;;5033406;28;20417;-69
2023/06/16 00:50:45;;;;;;;4.70;3.83;;;23.70;70.40;;;;;;5033284;28;20021;-61
2023/06/16 00:53:11;;;;;;;6.32;4.60;;;23.70;70.40;;;;;;5033408;28;20036;-62
2023/06/16 00:55:37;;;;;;;7.03;4.63;;;23.70;70.10;;;;;;5033232;28;20019;-62
2023/06/16 00:58:03;;;;;;;8.88;4.75;;;23.70;70.20;;;;;;5033142;28;20140;-66
2023/06/16 01:00:32;;;;;;;8.98;5.00;;;23.60;70.10;;;;;;5033394;28;20025;-62
2023/06/16 01:02:57;;;;;;;7.82;4.32;;;23.60;70.20;;;;;;5031475;28;20071;-62
2023/06/16 01:05:24;;;;;;;6.65;5.18;;;23.60;70.20;;;;;;5025547;28;20026;-61
2023/06/16 01:08:21;;;;;;;6.53;4.57;;;23.60;70.40;;;;;;5032753;28;20033;-62
2023/06/16 01:11:16;;;;;;;7.43;4.95;;;23.50;70.40;;;;;;5030974;28;20080;-62
2023/06/16 01:14:07;;;;;;;10.40;4.95;;;23.50;70.40;;;;;;4994737;28;20402;-62
2023/06/16 01:16:35;;;;;;;7.50;5.55;;;23.50;70.40;;;;;;5032939;28;20021;-62
2023/06/16 01:19:08;;;;;;;8.43;4.95;;;23.50;70.60;;;;;;5033122;28;20080;-62
2023/06/16 01:21:52;;;;;;;8.10;4.85;;;23.50;70.70;;;;;;5032958;28;20030;-62
2023/06/16 01:24:23;;;;;;;6.28;5.03;;;23.40;70.70;;;;;;5032967;28;20488;-62
2023/06/16 01:26:52;;;;;;;11.32;5.47;;;23.40;70.90;;;;;;5032528;28;20482;-62
2023/06/16 01:29:21;;;;;;;7.70;5.43;;;23.40;71.10;;;;;;5032860;28;20417;-62
2023/06/16 01:31:48;;;;;;;6.03;5.43;;;23.40;71.20;;;;;;5032890;28;20568;-62
2023/06/16 01:34:15;;;;;;;7.80;5.03;;;23.30;71.40;;;;;;5032754;28;20132;-61
2023/06/16 01:36:42;;;;;;;10.48;5.50;;;23.30;71.50;;;;;;5033127;28;20048;-62
2023/06/16 01:39:08;;;;;;;8.65;6.00;;;23.30;71.70;;;;;;5032309;28;20033;-62
2023/06/16 01:41:36;;;;;;;11.40;6.45;;;23.30;72.10;;;;;;5032807;28;20056;-62
2023/06/16 01:44:02;;;;;;;9.10;5.70;;;23.30;72.30;;;;;;5032635;28;20036;-62
2023/06/16 01:46:29;;;;;;;8.75;5.45;;;23.20;72.30;;;;;;5032722;28;20108;-62
2023/06/16 01:48:55;;;;;;;8.55;5.30;;;23.20;72.30;;;;;;5032599;28;20028;-62
2023/06/16 01:51:22;;;;;;;8.48;5.45;;;23.20;72.70;;;;;;5035863;28;20117;-62
2023/06/16 01:53:48;;;;;;;10.10;5.78;;;23.20;72.70;;;;;;5036174;28;20052;-61
2023/06/16 01:56:15;;;;;;;11.63;5.63;;;23.20;72.90;;;;;;5036324;28;20512;-61
2023/06/16 01:58:42;;;;;;;7.70;5.97;;;23.20;73.10;;;;;;5036322;28;20096;-62
2023/06/16 02:01:13;;;;;;;8.35;5.60;;;23.10;73.20;;;;;;5036226;28;20382;-61
2023/06/16 02:03:49;;;;;;;6.38;5.53;;;23.10;73.40;;;;;;5036163;28;20084;-61
2023/06/16 02:06:19;;;;;;;8.02;6.40;;;23.10;73.70;;;;;;5036288;28;20090;-61
2023/06/16 02:08:47;;;;;;;9.63;6.43;;;23.10;73.60;;;;;;5035941;28;20030;-61
2023/06/16 02:11:14;;;;;;;8.15;6.40;;;23.00;73.80;;;;;;5036008;28;20095;-61
2023/06/16 02:13:40;;;;;;;7.78;6.32;;;23.00;74.20;;;;;;5036069;28;20033;-61
2023/06/16 02:16:05;;;;;;;10.35;6.15;;;23.00;74.00;;;;;;5036044;28;20387;-61
2023/06/16 02:18:32;;;;;;;7.75;6.38;;;23.00;74.20;;;;;;5036057;28;20021;-61
2023/06/16 02:20:58;;;;;;;9.85;6.45;;;23.00;74.40;;;;;;5036010;28;20104;-62
2023/06/16 02:23:24;;;;;;;7.70;6.55;;;23.00;74.60;;;;;;5035559;28;20022;-62
2023/06/16 02:25:50;;;;;;;8.10;5.88;;;23.00;74.60;;;;;;5035824;28;20463;-63
2023/06/16 02:28:16;;;;;;;7.30;6.60;;;22.90;74.80;;;;;;5035687;28;20022;-62
2023/06/16 02:30:42;;;;;;;7.22;6.40;;;22.90;75.00;;;;;;5036069;28;20022;-62
2023/06/16 02:33:08;;;;;;;9.93;6.45;;;22.90;74.90;;;;;;5035710;28;20032;-70
2023/06/16 02:35:33;;;;;;;9.90;6.70;;;22.90;75.20;;;;;;5035627;28;20021;-61
2023/06/16 02:38:00;;;;;;;9.15;6.93;;;22.90;75.40;;;;;;5035515;28;20029;-62
2023/06/16 02:40:25;;;;;;;9.82;7.20;;;22.90;75.30;;;;;;5035447;28;20028;-63
2023/06/16 02:42:51;;;;;;;8.02;6.65;;;22.80;75.50;;;;;;5035404;28;20037;-61
2023/06/16 02:45:16;;;;;;;10.88;6.85;;;22.80;75.60;;;;;;5035360;28;20022;-61
2023/06/16 02:47:42;;;;;;;10.13;7.15;;;22.80;75.70;;;;;;5035462;28;20034;-62
2023/06/16 02:50:08;;;;;;;10.07;6.57;;;22.70;75.60;;;;;;5035234;28;20104;-62
2023/06/16 02:52:35;;;;;;;9.63;7.47;;;22.70;75.80;;;;;;5035176;28;20021;-62
2023/06/16 02:55:01;;;;;;;8.57;7.32;;;22.70;76.10;;;;;;5035250;28;20120;-61
2023/06/16 02:57:27;;;;;;;10.75;7.72;;;22.70;76.30;;;;;;5035310;28;20056;-61
2023/06/16 02:59:52;;;;;;;11.35;7.82;;;22.70;76.50;;;;;;5035183;28;20115;-61
2023/06/16 03:02:18;;;;;;;11.50;8.27;;;22.70;76.70;;;;;;5034793;28;20037;-61
2023/06/16 03:04:43;;;;;;;10.43;8.07;;;22.60;76.70;;;;;;5035190;28;20047;-61
2023/06/16 03:07:09;;;;;;;11.10;8.20;;;22.60;76.70;;;;;;5034824;28;20490;-61
2023/06/16 03:09:35;;;;;;;11.65;8.07;;;22.60;76.80;;;;;;5034983;28;20116;-61
2023/06/16 03:12:01;;;;;;;8.55;7.53;;;22.60;77.10;;;;;;5031471;28;20108;-61
2023/06/16 03:14:27;;;;;;;9.95;7.68;;;22.50;77.10;;;;;;5030756;28;20025;-61
2023/06/16 03:16:53;;;;;;;10.68;8.32;;;22.50;77.20;;;;;;5034510;28;20100;-61
2023/06/16 03:19:19;;;;;;;8.68;7.38;;;22.50;77.20;;;;;;5030807;28;20527;-61
2023/06/16 03:21:44;;;;;;;10.25;8.35;;;22.50;77.40;;;;;;5018898;28;20168;-61
2023/06/16 03:24:13;;;;;;;9.55;7.82;;;22.50;77.40;;;;;;5034554;28;20383;-61
2023/06/16 03:26:39;;;;;;;10.90;8.15;;;22.40;77.50;;;;;;5034584;28;20026;-61
2023/06/16 03:29:05;;;;;;;10.52;7.57;;;22.40;77.60;;;;;;5034530;28;20021;-61
2023/06/16 03:31:31;;;;;;;10.98;8.43;;;22.40;77.80;;;;;;5034388;28;20370;-61
2023/06/16 03:33:57;;;;;;;11.77;7.78;;;22.40;77.80;;;;;;5034633;28;20036;-61
2023/06/16 03:36:22;;;;;;;9.38;8.13;;;22.30;77.80;;;;;;5031891;28;20026;-61
2023/06/16 03:38:48;;;;;;;13.23;8.35;;;22.30;77.80;;;;;;5033093;28;20039;-61
2023/06/16 03:41:14;;;;;;;10.30;8.23;;;22.30;77.90;;;;;;5034226;28;20072;-61
2023/06/16 03:43:39;;;;;;;12.95;9.02;;;22.30;78.00;;;;;;5034463;28;20068;-61
2023/06/16 03:46:05;;;;;;;13.02;9.20;;;22.30;78.20;;;;;;5033116;28;20033;-61
2023/06/16 03:48:30;;;;;;;10.15;8.48;;;22.30;78.10;;;;;;5034368;28;20071;-61
2023/06/16 03:50:56;;;;;;;12.00;8.20;;;22.30;78.20;;;;;;5015589;28;20034;-61
2023/06/16 03:53:22;;;;;;;11.13;7.93;;;22.30;78.40;;;;;;5014544;28;20022;-61
2023/06/16 03:55:48;;;;;;;10.68;8.32;;;22.20;78.60;;;;;;5014350;28;20430;-61
2023/06/16 03:58:15;;;;;;;12.48;8.30;;;22.20;78.40;;;;;;5014607;28;20033;-61
2023/06/16 04:00:41;;;;;;;10.35;7.93;;;22.20;78.30;;;;;;5013066;28;20088;-61
2023/06/16 04:03:08;;;;;;;11.65;8.10;;;22.20;78.50;;;;;;5014184;28;20037;-61
2023/06/16 04:05:34;;;;;;;11.05;8.40;;;22.20;78.40;;;;;;5013913;28;20022;-61
2023/06/16 04:08:00;;;;;;;14.20;8.57;;;22.20;78.60;;;;;;5014278;28;20068;-61
2023/06/16 04:10:25;;;;;;;10.13;8.27;;;22.20;78.40;;;;;;5013940;28;20050;-61
2023/06/16 04:12:52;;;;;;;10.32;7.75;;;22.20;78.60;;;;;;5013726;28;20022;-61
2023/06/16 04:15:18;;;;;;;9.35;8.45;;;22.20;78.60;;;;;;5014048;28;20025;-61
2023/06/16 04:17:44;;;;;;;10.68;8.20;;;22.20;78.40;;;;;;5014059;28;20538;-61
2023/06/16 04:20:11;;;;;;;12.77;8.68;;;22.20;78.50;;;;;;5013745;28;20018;-61
2023/06/16 04:22:37;;;;;;;10.77;8.75;;;22.20;78.30;;;;;;5013904;28;20104;-61
2023/06/16 04:25:04;;;;;;;9.02;7.88;;;22.10;78.50;;;;;;5013803;28;20084;-61
2023/06/16 04:27:32;;;;;;;13.95;8.27;;;22.10;78.60;;;;;;5014069;28;20026;-61
2023/06/16 04:29:58;;;;;;;13.55;8.80;;;22.10;78.70;;;;;;5014120;28;20017;-61
2023/06/16 04:32:23;;;;;;;9.68;8.55;;;22.10;79.10;;;;;;5013808;28;20426;-61
2023/06/16 04:34:49;;;;;;;12.20;9.00;;;22.10;78.80;;;;;;5013440;28;20025;-61
2023/06/16 04:37:16;;;;;;;11.88;8.73;;;22.10;79.10;;;;;;5013491;28;20475;-61
2023/06/16 04:39:42;;;;;;;39.28;11.55;;;22.10;78.50;;;;;;5013965;28;20029;-60
2023/06/16 04:42:09;;;;;;;10.52;7.85;;;22.10;78.70;;;;;;5013583;28;20038;-60
2023/06/16 04:44:35;;;;;;;9.95;8.40;;;22.10;78.80;;;;;;5013662;28;20030;-60
2023/06/16 04:47:01;;;;;;;15.60;7.88;;;22.10;78.30;;;;;;5013735;28;20112;-60
2023/06/16 04:49:27;;;;;;;8.00;7.20;;;22.00;78.40;;;;;;5013305;28;20481;-61
2023/06/16 04:51:53;;;;;;;9.95;7.93;;;22.00;78.10;;;;;;5013414;28;20029;-60
2023/06/16 04:54:19;;;;;;;9.60;7.93;;;22.00;78.10;;;;;;5013462;28;20029;-60
2023/06/16 04:56:45;;;;;;;10.43;8.10;;;22.00;78.10;;;;;;5013626;28;20018;-60
2023/06/16 04:59:11;;;;;;;11.05;7.63;;;22.00;77.90;;;;;;5013594;28;20471;-60
2023/06/16 05:01:37;;;;;;;11.63;6.90;;;22.10;77.60;;;;;;5024964;28;20033;-60
2023/06/16 05:04:03;;;;;;;10.60;8.07;;;22.00;77.30;;;;;;5032979;28;20025;-60
2023/06/16 05:06:37;;;;;;;12.73;7.68;;;22.00;77.20;;;;;;5031746;28;20410;-60
2023/06/16 05:09:04;;;;;;;10.45;8.40;;;22.00;77.10;;;;;;5032582;28;20025;-60
2023/06/16 05:11:30;;;;;;;10.98;7.93;;;22.00;77.30;;;;;;5032851;28;20405;-60
2023/06/16 05:13:55;;;;;;;9.73;8.13;;;22.10;76.80;;;;;;5033001;28;20029;-60
2023/06/16 05:16:21;;;;;;;18.73;8.30;;;22.10;77.00;;;;;;5032913;28;20317;-61
2023/06/16 05:18:46;;;;;;;11.52;7.97;;;22.10;76.80;;;;;;5032703;28;20017;-60
2023/06/16 05:21:12;;;;;;;12.32;8.85;;;22.00;76.90;;;;;;5032801;28;20075;-61
2023/06/16 05:23:37;;;;;;;10.95;8.50;;;22.00;76.20;;;;;;5033231;28;20022;-61
2023/06/16 05:26:03;;;;;;;12.85;8.45;;;22.00;76.20;;;;;;5036894;28;20065;-61
2023/06/16 05:28:29;;;;;;;10.45;9.07;;;22.10;76.10;;;;;;5036763;28;20017;-61
2023/06/16 05:30:55;;;;;;;11.93;8.73;;;22.10;75.90;;;;;;5037130;28;20049;-60
2023/06/16 05:33:20;;;;;;;13.70;9.05;;;22.10;75.30;;;;;;5036424;28;20026;-60
2023/06/16 05:35:46;;;;;;;15.48;10.27;;;22.10;75.00;;;;;;5036801;28;20028;-61
2023/06/16 05:38:11;;;;;;;10.95;8.93;;;22.10;75.20;;;;;;5036648;28;20109;-61
2023/06/16 05:40:37;;;;;;;12.82;9.43;;;22.20;75.30;;;;;;5037061;28;20029;-60
2023/06/16 05:43:03;;;;;;;12.38;9.80;;;22.10;74.70;;;;;;5036494;28;20448;-60
2023/06/16 05:45:28;;;;;;;14.90;9.45;;;22.20;74.60;;;;;;5036523;28;20034;-60
2023/06/16 05:47:54;;;;;;;14.27;9.48;;;22.30;74.50;;;;;;5036225;28;20048;-60
2023/06/16 05:50:19;;;;;;;11.85;9.50;;;22.30;74.60;;;;;;5036418;28;20474;-60
2023/06/16 05:52:45;;;;;;;16.25;9.93;;;22.30;73.90;;;;;;5036648;28;20029;-61
2023/06/16 05:55:11;;;;;;;14.32;9.75;;;22.30;73.50;;;;;;5036432;28;20482;-60
2023/06/16 05:57:37;;;;;;;14.80;10.30;;;22.40;73.30;;;;;;5036416;28;20107;-60
2023/06/16 06:00:04;;;;;;;11.63;9.93;;;22.50;73.40;;;;;;5036544;28;20057;-61
2023/06/16 06:02:30;;;;;;;12.32;9.60;;;22.40;73.40;;;;;;5033994;28;20040;-60
2023/06/16 06:04:56;;;;;;;24.63;9.60;;;22.50;73.40;;;;;;5032027;28;20025;-61
2023/06/16 06:07:21;;;;;;;13.23;9.70;;;22.50;73.20;;;;;;5031721;28;20042;-61
2023/06/16 06:09:47;;;;;;;12.40;8.85;;;22.50;72.90;;;;;;5031144;28;20029;-61
2023/06/16 06:12:13;;;;;;;13.57;8.95;;;22.60;73.30;;;;;;5032395;28;20033;-62
2023/06/16 06:14:38;;;;;;;14.23;8.82;;;22.60;72.60;;;;;;5033745;28;20096;-61
2023/06/16 06:17:05;;;;;;;10.48;9.02;;;22.70;72.60;;;;;;5031981;28;20532;-61
2023/06/16 06:19:30;;;;;;;13.43;8.68;;;22.70;71.60;;;;;;5031733;28;20033;-63
2023/06/16 06:21:56;;;;;;;12.38;8.27;;;22.80;71.40;;;;;;5033020;28;20041;-67
2023/06/16 06:24:21;;;;;;;15.45;8.88;;;22.90;71.20;;;;;;5035220;28;20025;-62
2023/06/16 06:26:47;;;;;;;22.02;9.07;;;23.00;70.60;;;;;;5030905;28;20029;-61
2023/06/16 06:29:14;;;;;;;13.45;8.15;;;23.00;69.80;;;;;;5031399;28;20018;-61
2023/06/16 06:31:40;;;;;;;10.38;7.10;;;23.10;69.60;;;;;;5031803;28;20045;-63
2023/06/16 06:34:06;;;;;;;10.32;7.97;;;23.10;69.30;;;;;;5033818;28;20022;-65
2023/06/16 06:36:34;;;;;;;13.63;7.57;;;23.20;69.30;;;;;;5029163;28;20028;-73
2023/06/16 06:38:59;;;;;;;13.68;7.32;;;23.20;69.40;;;;;;5021826;28;20025;-65
2023/06/16 06:41:26;;;;;;;18.40;8.45;;;23.30;69.40;;;;;;5029184;28;20041;-79
2023/06/16 06:43:52;;;;;;;11.18;7.20;;;23.40;69.10;;;;;;5012225;28;20069;-76
2023/06/16 06:46:18;;;;;;;10.95;7.28;;;23.40;68.70;;;;;;5028328;28;20049;-63
2023/06/16 06:48:45;;;;;;;10.15;6.80;;;23.50;68.80;;;;;;5031313;28;20072;-63
2023/06/16 06:51:12;;;;;;;9.18;6.90;;;23.50;68.50;;;;;;5034264;28;20025;-72
2023/06/16 06:53:38;;;;;;;11.48;6.95;;;23.60;68.30;;;;;;5019789;28;20455;-62
2023/06/16 06:56:03;;;;;;;15.27;6.43;;;23.60;68.10;;;;;;5021206;28;20021;-62
2023/06/16 06:58:29;;;;;;;11.85;7.47;;;23.70;68.20;;;;;;5024157;28;20022;-62
2023/06/16 07:00:55;;;;;;;11.00;6.47;;;23.80;67.80;;;;;;5014882;28;20053;-62
2023/06/16 07:03:20;;;;;;;14.43;7.25;;;23.80;68.20;;;;;;5033913;28;20101;-77
2023/06/16 07:05:46;;;;;;;11.55;7.10;;;23.90;67.80;;;;;;5033748;28;20124;-63
2023/06/16 07:08:12;;;;;;;11.68;5.10;;;24.00;68.00;;;;;;5034680;28;20025;-63
2023/06/16 07:10:37;;;;;;;14.57;6.70;;;24.00;68.70;;;;;;5031143;28;20041;-64
2023/06/16 07:13:06;;;;;;;10.73;6.20;;;24.00;67.90;;;;;;5026984;28;20041;-64
2023/06/16 07:15:32;;;;;;;10.10;5.45;;;24.10;67.60;;;;;;5031784;28;20071;-64
2023/06/16 07:17:58;;;;;;;11.10;4.95;;;24.10;68.40;;;;;;5033492;28;20029;-64
2023/06/16 07:20:24;;;;;;;8.63;4.68;;;24.20;67.60;;;;;;5025966;28;20025;-65
2023/06/16 07:22:49;;;;;;;8.68;4.90;;;24.20;67.20;;;;;;5034216;28;20545;-63
2023/06/16 07:25:16;;;;;;;9.48;5.75;;;24.30;67.00;;;;;;5031590;28;20025;-65
2023/06/16 07:27:43;;;;;;;8.30;4.60;;;24.40;65.50;;;;;;5014509;28;20030;-65
2023/06/16 07:30:09;;;;;;;10.00;5.13;;;24.40;66.00;;;;;;5021800;28;20041;-65
2023/06/16 07:32:36;;;;;;;9.60;4.90;;;24.40;66.50;;;;;;5014280;28;20578;-66
2023/06/16 07:35:02;;;;;;;6.55;4.50;;;24.50;65.90;;;;;;5020159;28;20072;-63
2023/06/16 07:37:28;;;;;;;11.45;4.63;;;24.60;65.70;;;;;;5032531;28;20022;-64
2023/06/16 07:39:54;;;;;;;6.35;4.32;;;24.70;64.70;;;;;;5026782;28;20099;-64
2023/06/16 07:42:19;;;;;;;10.00;4.07;;;24.80;64.10;;;;;;5009661;28;20565;-66
2023/06/16 07:44:45;;;;;;;8.02;4.47;;;24.80;64.60;;;;;;5024994;28;20040;-62
2023/06/16 07:47:10;;;;;;;8.00;4.25;;;24.80;64.90;;;;;;5029548;28;20029;-63
2023/06/16 07:49:36;;;;;;;5.43;3.97;;;24.90;66.10;;;;;;5030582;28;20509;-63
2023/06/16 07:52:02;;;;;;;8.15;4.88;;;24.90;65.50;;;;;;5033200;28;20074;-64
2023/06/16 07:54:28;;;;;;;8.40;4.28;;;24.90;64.20;;;;;;5030550;28;20159;-64
2023/06/16 07:56:53;;;;;;;7.53;4.82;;;25.00;63.90;;;;;;5031682;28;20479;-62
2023/06/16 07:59:19;;;;;;;6.57;4.72;;;25.10;63.40;;;;;;5027992;28;20050;-62
2023/06/16 08:01:45;;;;;;;7.18;4.35;;;25.10;63.40;;;;;;5030616;28;20522;-62
2023/06/16 08:04:11;;;;;;;9.02;4.78;;;25.20;64.00;;;;;;5021731;28;20030;-63
2023/06/16 08:06:37;;;;;;;5.70;4.63;;;25.30;63.50;;;;;;5012772;28;20026;-62
2023/06/16 08:09:03;;;;;;;10.27;4.20;;;25.30;63.50;;;;;;5013589;28;20036;-62
2023/06/16 08:11:29;;;;;;;8.63;4.35;;;25.40;64.00;;;;;;5025188;28;20033;-62
2023/06/16 08:13:55;;;;;;;11.32;4.88;;;25.50;63.90;;;;;;5016528;28;20560;-65
2023/06/16 08:16:20;;;;;;;4.78;3.75;;;25.50;63.70;;;;;;5027457;28;20053;-66
2023/06/16 08:18:46;;;;;;;4.75;3.80;;;25.60;63.40;;;;;;5024886;28;20495;-63
2023/06/16 08:21:11;;;;;;;10.70;4.68;;;25.60;63.10;;;;;;5021222;28;20033;-62
2023/06/16 08:23:37;;;;;;;7.18;4.50;;;25.70;62.80;;;;;;5020216;28;20018;-62
2023/06/16 08:26:04;;;;;;;7.05;4.38;;;25.70;62.90;;;;;;5020358;28;20029;-62
2023/06/16 08:28:30;;;;;;;6.50;4.22;;;25.80;62.60;;;;;;5024582;28;20026;-61
2023/06/16 08:30:56;;;;;;;7.78;4.35;;;25.90;62.60;;;;;;5031094;28;20647;-63
2023/06/16 08:33:22;;;;;;;13.98;4.72;;;26.00;62.20;;;;;;5019053;28;20021;-62
2023/06/16 08:35:47;;;;;;;9.43;4.20;;;26.00;62.40;;;;;;5030567;28;20036;-65
2023/06/16 08:38:13;;;;;;;8.45;4.53;;;26.00;62.00;;;;;;5031746;28;20021;-63
2023/06/16 08:40:39;;;;;;;5.55;3.90;;;26.10;61.40;;;;;;5030915;28;20082;-62
2023/06/16 08:43:06;;;;;;;8.93;4.05;;;26.10;62.00;;;;;;5029077;28;20059;-76
2023/06/16 08:45:33;;;;;;;9.25;3.90;;;26.10;62.50;;;;;;5030768;28;20029;-63
2023/06/16 08:47:59;;;;;;;8.00;4.07;;;26.10;60.90;;;;;;5028580;28;20505;-61
2023/06/16 08:50:26;;;;;;;6.43;4.45;;;26.20;61.00;;;;;;5032131;28;20037;-61
2023/06/16 08:52:54;;;;;;;6.15;4.13;;;26.30;61.60;;;;;;5031752;28;20087;-62
2023/06/16 08:55:23;;;;;;;9.35;4.05;;;26.30;61.00;;;;;;5031670;28;20045;-61
2023/06/16 08:57:52;;;;;;;11.18;3.63;;;26.40;62.00;;;;;;5032595;28;20018;-61
2023/06/16 09:00:18;;;;;;;6.10;3.10;;;26.30;62.30;;;;;;5032118;28;20068;-61
2023/06/16 09:02:55;;;;;;;6.32;3.40;;;26.30;63.50;;;;;;5030554;28;20478;-62
2023/06/16 09:05:22;;;;;;;10.18;3.92;;;26.30;61.80;;;;;;5027531;28;20026;-62
2023/06/16 09:07:49;;;;;;;7.40;4.32;;;26.50;59.80;;;;;;5031511;28;20026;-61
2023/06/16 09:10:16;;;;;;;4.43;3.72;;;26.50;59.20;;;;;;5027941;28;20043;-60
2023/06/16 09:12:42;;;;;;;6.90;3.70;;;26.50;59.70;;;;;;5024367;28;20029;-61
2023/06/16 09:15:08;;;;;;;6.80;3.90;;;26.60;59.30;;;;;;5015328;28;20071;-61
2023/06/16 09:17:34;;;;;;;7.45;3.60;;;26.60;59.70;;;;;;5008808;28;20104;-63
2023/06/16 09:20:01;;;;;;;5.38;3.58;;;26.60;61.10;;;;;;5017872;28;20141;-63
2023/06/16 09:22:28;;;;;;;7.57;4.00;;;26.60;61.00;;;;;;5010173;28;20483;-62
2023/06/16 09:24:57;;;;;;;5.20;3.20;;;26.60;59.90;;;;;;5019509;28;20022;-63
2023/06/16 09:27:44;;;;;;;6.30;3.60;;;26.60;60.30;;;;;;5026937;28;20159;-63
2023/06/16 09:30:12;;;;;;;6.10;3.25;;;26.70;63.20;;;;;;5019114;28;20041;-63
2023/06/16 09:32:38;;;;;;;6.15;3.00;;;26.70;62.70;;;;;;5028150;28;20032;-62
2023/06/16 09:35:20;;;;;;;6.45;3.25;;;26.70;61.40;;;;;;5029867;28;20411;-63
2023/06/16 09:37:49;;;;;;;5.20;3.30;;;26.70;61.00;;;;;;5046400;28;20093;-63
2023/06/16 09:40:16;;;;;;;5.15;3.58;;;26.70;61.00;;;;;;5031949;28;20052;-63
2023/06/16 09:42:44;;;;;;;4.90;3.95;;;26.70;62.50;;;;;;5007533;28;20372;-63
2023/06/16 09:45:12;;;;;;;7.07;3.85;;;26.80;60.10;;;;;;5030102;28;20021;-62
2023/06/16 09:47:43;;;;;;;4.35;3.55;;;26.80;58.70;;;;;;5025754;28;20025;-65
2023/06/16 09:50:13;;;;;;;4.55;3.00;;;26.90;58.30;;;;;;5024245;28;20029;-63
2023/06/16 09:52:41;;;;;;;5.30;3.75;;;26.90;60.70;;;;;;5020898;28;20029;-64
2023/06/16 09:55:07;;;;;;;5.00;3.45;;;26.90;59.70;;;;;;5028863;28;20041;-62
2023/06/16 09:57:33;;;;;;;5.15;2.95;;;26.90;59.50;;;;;;5024470;28;20026;-63
2023/06/16 09:59:58;;;;;;;6.43;3.58;;;26.90;60.50;;;;;;5028433;28;20335;-62
2023/06/16 10:02:27;;;;;;;7.35;3.63;;;26.90;61.40;;;;;;5019570;28;20041;-63
2023/06/16 10:04:59;;;;;;;8.77;4.18;;;26.90;61.20;;;;;;5028177;28;20021;-72
2023/06/16 10:07:25;;;;;;;5.50;4.05;;;26.90;59.80;;;;;;5028888;28;20018;-80
2023/06/16 10:09:52;;;;;;;5.63;3.67;;;27.00;59.80;;;;;;5021730;28;20479;-64
2023/06/16 10:12:20;;;;;;;7.43;4.03;;;27.00;60.40;;;;;;5022647;28;20124;-64
2023/06/16 10:14:47;;;;;;;6.43;3.28;;;27.00;60.70;;;;;;5027120;28;20052;-63
2023/06/16 10:17:15;;;;;;;7.15;3.05;;;27.00;60.10;;;;;;5033645;28;20057;-64
2023/06/16 10:19:46;;;;;;;6.32;3.20;;;27.10;59.60;;;;;;5034840;28;20470;-63
2023/06/16 10:22:12;;;;;;;8.57;3.17;;;27.10;58.30;;;;;;5033612;28;20467;-63
2023/06/16 10:24:39;;;;;;;5.88;3.28;;;27.10;58.70;;;;;;5034044;28;20018;-63
2023/06/16 10:27:07;;;;;;;7.82;3.53;;;27.10;57.70;;;;;;5033542;28;20033;-63
2023/06/16 10:29:33;;;;;;;3.67;2.85;;;27.20;57.90;;;;;;5026888;28;20024;-63
2023/06/16 10:32:06;;;;;;;5.50;3.03;;;27.10;58.60;;;;;;5034991;28;20029;-63
2023/06/16 10:34:34;;;;;;;5.18;2.97;;;27.20;58.70;;;;;;5032223;28;20417;-65
2023/06/16 10:37:01;;;;;;;8.05;3.30;;;27.10;58.90;;;;;;5025222;28;20073;-64
2023/06/16 10:39:27;;;;;;;6.32;2.95;;;27.20;57.20;;;;;;5025754;28;20026;-74
2023/06/16 10:42:00;;;;;;;6.47;2.90;;;27.20;57.40;;;;;;5033429;28;20113;-63
2023/06/16 10:44:30;;;;;;;7.68;3.58;;;27.20;56.50;;;;;;5032820;28;20022;-64
2023/06/16 10:47:05;;;;;;;5.18;3.40;;;27.30;56.10;;;;;;5033473;28;20068;-63
2023/06/16 10:49:31;;;;;;;5.30;3.22;;;27.20;55.90;;;;;;5032731;28;20087;-63
2023/06/16 10:51:59;;;;;;;5.70;3.03;;;27.30;56.30;;;;;;5032624;28;20498;-63
2023/06/16 10:54:36;;;;;;;6.95;3.08;;;27.30;56.30;;;;;;5034624;28;20083;-63
2023/06/16 10:57:03;;;;;;;6.82;3.70;;;27.30;61.20;;;;;;5033887;28;20036;-64
2023/06/16 10:59:29;;;;;;;9.02;3.03;;;27.30;61.80;;;;;;5033156;28;20052;-63
2023/06/16 11:01:57;;;;;;;9.05;3.60;;;27.20;59.00;;;;;;5029501;28;20772;-63
2023/06/16 11:04:23;;;;;;;10.52;3.30;;;27.30;60.20;;;;;;5015075;28;20025;-62
2023/06/16 11:07:08;;;;;;;7.10;2.88;;;27.20;60.50;;;;;;5025740;28;20030;-63
2023/06/16 11:09:35;;;;;;;4.97;3.30;;;27.20;58.80;;;;;;5030155;28;20037;-63
2023/06/16 11:12:01;;;;;;;6.00;3.33;;;27.30;58.80;;;;;;5034732;28;20029;-63
2023/06/16 11:14:27;;;;;;;3.80;2.58;;;27.30;57.50;;;;;;5034801;28;20046;-63
2023/06/16 11:16:54;;;;;;;5.53;2.80;;;27.20;58.50;;;;;;5035006;28;20065;-64
2023/06/16 11:19:20;;;;;;;6.45;2.53;;;27.20;59.20;;;;;;5033106;28;20022;-63
2023/06/16 11:21:46;;;;;;;3.72;2.58;;;27.30;57.00;;;;;;5034540;28;20044;-63
2023/06/16 11:24:13;;;;;;;4.80;3.15;;;27.30;57.60;;;;;;5034770;28;20018;-62
2023/06/16 11:26:39;;;;;;;4.15;2.72;;;27.30;56.70;;;;;;5034580;28;20029;-63
2023/06/16 11:29:06;;;;;;;5.43;3.10;;;27.30;57.30;;;;;;5034696;28;20463;-63
2023/06/16 11:31:35;;;;;;;9.70;3.60;;;27.30;57.40;;;;;;5034547;28;20017;-64
2023/06/16 11:34:02;;;;;;;7.20;3.20;;;27.30;57.10;;;;;;5032219;28;20478;-63
2023/06/16 11:36:28;;;;;;;6.05;2.67;;;27.30;57.90;;;;;;5034539;28;20356;-63
2023/06/16 11:38:57;;;;;;;3.83;2.72;;;27.30;57.20;;;;;;5034514;28;20481;-64
2023/06/16 11:41:25;;;;;;;4.85;2.65;;;27.30;56.60;;;;;;5032952;28;20489;-63
2023/06/16 11:43:51;;;;;;;5.20;2.95;;;27.30;57.10;;;;;;5034262;28;20052;-63
2023/06/16 11:46:21;;;;;;;5.82;3.22;;;27.30;57.00;;;;;;5034301;28;20091;-63
2023/06/16 11:48:47;;;;;;;4.65;2.75;;;27.30;56.40;;;;;;5034156;28;20505;-63
2023/06/16 11:51:15;;;;;;;4.88;2.90;;;27.30;56.40;;;;;;5033996;28;20026;-64
2023/06/16 11:53:41;;;;;;;4.65;2.85;;;27.40;55.70;;;;;;5034352;28;20049;-63
2023/06/16 11:56:08;;;;;;;4.05;3.05;;;27.40;56.00;;;;;;5034055;28;20107;-64
2023/06/16 11:58:34;;;;;;;3.75;2.85;;;27.40;58.60;;;;;;5033954;28;20037;-64
2023/06/16 12:01:01;;;;;;;7.10;2.67;;;27.40;57.70;;;;;;5033969;28;20352;-62
2023/06/16 12:03:34;;;;;;;4.53;2.58;;;27.40;56.10;;;;;;5033817;28;20033;-63
2023/06/16 12:06:01;;;;;;;3.25;2.30;;;27.40;56.40;;;;;;5033574;28;20025;-63
2023/06/16 12:08:35;;;;;;;4.40;2.97;;;27.40;56.70;;;;;;5033796;28;20029;-64
2023/06/16 12:11:01;;;;;;;5.13;3.20;;;27.40;56.00;;;;;;5033646;28;20103;-64
2023/06/16 12:13:26;;;;;;;4.90;3.10;;;27.40;54.60;;;;;;5032377;28;20473;-64
2023/06/16 12:15:52;;;;;;;6.32;2.70;;;27.40;54.40;;;;;;5033583;28;20378;-64
2023/06/16 12:18:17;;;;;;;5.25;2.90;;;27.40;57.70;;;;;;5033597;28;20032;-64
2023/06/16 12:20:45;;;;;;;4.55;2.80;;;27.40;54.50;;;;;;5033403;28;20025;-64
2023/06/16 12:23:11;;;;;;;4.70;3.08;;;27.40;55.10;;;;;;5032661;28;20116;-64
2023/06/16 12:25:37;;;;;;;7.30;3.20;;;27.40;54.20;;;;;;5031774;28;20068;-62
2023/06/16 12:28:03;;;;;;;6.18;3.17;;;27.50;55.30;;;;;;5033242;28;20049;-63
2023/06/16 12:30:33;;;;;;;7.45;3.10;;;27.50;55.30;;;;;;5031096;28;20029;-66
2023/06/16 12:33:12;;;;;;;3.45;3.05;;;27.40;54.10;;;;;;5030573;28;20080;-66
2023/06/16 12:35:38;;;;;;;8.32;3.92;;;27.50;52.20;;;;;;5031894;28;20026;-66
2023/06/16 12:38:03;;;;;;;6.35;3.53;;;27.30;52.00;;;;;;5032752;28;20032;-66
2023/06/16 12:40:31;;;;;;;8.18;3.72;;;27.30;51.90;;;;;;5033534;28;20504;-73
2023/06/16 12:43:16;;;;;;;4.82;3.33;;;27.30;52.10;;;;;;5033182;28;20525;-66